Time;durP1;ratioP1;P1;durP2;ratioP2;P2;SDS_P1;SDS_P2;PMS_P1;PMS_P2;Temp;Humidity;BMP_temperature;BMP_pressure;BME280_temperature;BME280_humidity;BME280_pressure;Samples;Min_cycle;Max_cycle;Signal;HPM_P1;HPM_P2
2022/10/01 00:02:25;;;;;;;20.52;2.72;;;;;;;11.14;100.00;98816.50;4812106;29;20048;-93
2022/10/01 00:04:55;;;;;;;20.85;2.90;;;;;;;11.09;100.00;98817.06;4823837;29;20116;-92
2022/10/01 00:07:25;;;;;;;14.45;2.83;;;;;;;11.08;100.00;98823.38;4821342;29;20505;-92
2022/10/01 00:09:55;;;;;;;13.15;2.28;;;;;;;11.10;100.00;98824.00;4796836;29;20124;-90
2022/10/01 00:12:25;;;;;;;17.70;3.10;;;;;;;11.04;100.00;98815.00;4822062;29;20133;-92
2022/10/01 00:14:54;;;;;;;20.05;3.25;;;;;;;11.02;100.00;98821.50;4837072;29;20040;-92
2022/10/01 00:17:21;;;;;;;14.85;2.55;;;;;;;11.01;100.00;98823.31;4830586;29;20137;-90
2022/10/01 00:19:49;;;;;;;18.17;2.70;;;;;;;11.03;100.00;98820.47;4789314;29;20039;-91
2022/10/01 00:22:17;;;;;;;15.25;2.03;;;;;;;11.02;100.00;98818.84;4817908;29;20175;-92
2022/10/01 00:24:46;;;;;;;22.48;2.85;;;;;;;11.04;100.00;98824.75;4806458;29;20038;-93
2022/10/01 00:27:14;;;;;;;18.13;2.30;;;;;;;11.02;100.00;98830.22;4819114;29;20033;-91
2022/10/01 00:29:44;;;;;;;18.35;3.13;;;;;;;11.03;100.00;98829.22;4828069;29;20041;-90
2022/10/01 00:32:14;;;;;;;16.50;2.58;;;;;;;11.04;100.00;98838.78;4826118;29;20128;-91
2022/10/01 00:34:44;;;;;;;18.77;1.98;;;;;;;11.07;100.00;98847.38;4820378;29;20046;-90
2022/10/01 00:37:13;;;;;;;22.17;3.20;;;;;;;11.04;100.00;98840.59;4793879;29;20041;-90
2022/10/01 00:39:41;;;;;;;16.05;2.40;;;;;;;11.04;100.00;98837.97;4842678;29;20057;-91
2022/10/01 00:42:20;;;;;;;19.70;3.05;;;;;;;11.05;100.00;98842.25;4817360;29;20159;-90
2022/10/01 00:44:52;;;;;;;16.13;2.80;;;;;;;11.04;100.00;98849.38;4828711;29;20037;-91
2022/10/01 00:47:45;;;;;;;20.52;3.05;;;;;;;11.04;100.00;98846.72;4839403;29;20092;-92
2022/10/01 00:50:31;;;;;;;15.77;2.03;;;;;;;11.06;100.00;98841.25;4808666;29;20034;-92
2022/10/01 00:53:04;;;;;;;21.40;3.35;;;;;;;11.08;100.00;98849.00;4843299;29;20034;-90
2022/10/01 00:55:44;;;;;;;15.27;2.38;;;;;;;11.09;100.00;98847.97;4837196;29;20562;-91
2022/10/01 00:58:14;;;;;;;12.68;2.38;;;;;;;11.08;100.00;98849.00;4812323;29;20038;-89
2022/10/01 01:00:43;;;;;;;19.70;2.63;;;;;;;11.06;100.00;98858.94;4812592;29;20108;-91
2022/10/01 01:03:11;;;;;;;18.45;2.50;;;;;;;11.06;100.00;98845.72;4808707;29;20041;-91
2022/10/01 01:05:38;;;;;;;19.85;3.13;;;;;;;11.05;100.00;98850.19;4822487;29;20038;-91
2022/10/01 01:08:08;;;;;;;25.52;2.90;;;;;;;11.06;100.00;98862.41;4797322;29;20042;-90
2022/10/01 01:10:45;;;;;;;22.83;2.25;;;;;;;11.04;100.00;98852.00;4800006;29;20042;-90
2022/10/01 01:13:34;;;;;;;13.75;2.17;;;;;;;11.03;100.00;98858.31;4842761;29;20038;-91
2022/10/01 01:16:34;;;;;;;25.42;2.47;;;;;;;11.02;100.00;98864.59;4811112;29;20045;-92
2022/10/01 01:19:29;;;;;;;23.55;2.78;;;;;;;11.00;100.00;98876.38;4829771;29;20046;-91
2022/10/01 01:22:03;;;;;;;23.42;2.97;;;;;;;11.01;100.00;98868.25;4830843;29;20046;-91
2022/10/01 01:24:33;;;;;;;25.65;2.90;;;;;;;11.03;100.00;98876.00;4796489;29;20120;-90
2022/10/01 01:27:27;;;;;;;19.50;2.90;;;;;;;11.02;100.00;98877.81;4830171;29;20125;-91
2022/10/01 01:30:12;;;;;;;23.17;2.97;;;;;;;11.00;100.00;98879.00;4820739;29;20034;-91
2022/10/01 01:32:52;;;;;;;19.25;2.30;;;;;;;11.00;100.00;98877.19;4825413;29;20057;-91
2022/10/01 01:35:31;;;;;;;21.70;3.40;;;;;;;11.01;100.00;98886.75;4827157;29;20046;-92
2022/10/01 01:38:06;;;;;;;24.30;3.33;;;;;;;11.00;100.00;98889.59;4815042;29;20372;-91
2022/10/01 01:40:38;;;;;;;;;;;;;;;10.90;100.00;98893.34;4806094;29;20042;-90
2022/10/01 01:43:19;;;;;;;15.95;2.40;;;;;;;10.98;100.00;98897.69;4816752;29;19920;-92
2022/10/01 01:45:53;;;;;;;16.88;2.35;;;;;;;10.98;100.00;98899.53;4827160;29;20046;-92
2022/10/01 01:48:23;;;;;;;21.42;3.58;;;;;;;10.96;100.00;98902.34;4825916;29;20034;-92
2022/10/01 01:51:03;;;;;;;25.88;2.53;;;;;;;10.98;100.00;98900.34;4842537;29;20038;-92
2022/10/01 01:53:31;;;;;;;24.92;3.20;;;;;;;10.97;100.00;98905.81;4809021;29;20041;-92
2022/10/01 01:56:02;;;;;;;23.20;3.17;;;;;;;10.97;100.00;98903.19;4808403;29;20109;-92
2022/10/01 01:58:34;;;;;;;27.67;2.47;;;;;;;10.95;100.00;98910.47;4830719;29;20145;-90
2022/10/01 02:01:04;;;;;;;17.33;2.20;;;;;;;10.94;100.00;98908.84;4819372;29;20042;-92
2022/10/01 02:03:34;;;;;;;20.77;2.78;;;;;;;10.92;100.00;98919.59;4834640;29;20498;-91
2022/10/01 02:06:29;;;;;;;21.60;2.97;;;;;;;10.91;100.00;98917.94;4821883;29;20114;-93
2022/10/01 02:09:10;;;;;;;19.65;2.95;;;;;;;10.87;100.00;98922.78;4823273;29;20136;-92
2022/10/01 02:12:15;;;;;;;20.23;2.55;;;;;;;10.86;100.00;98928.25;4796809;29;20511;-92
2022/10/01 02:14:56;;;;;;;22.95;2.63;;;;;;;10.82;100.00;98934.91;4797695;29;20089;-92
2022/10/01 02:17:45;;;;;;;21.63;2.45;;;;;;;10.78;100.00;98937.13;4810697;29;20046;-91
2022/10/01 02:20:21;;;;;;;33.10;4.60;;;;;;;10.78;100.00;98929.19;4840114;29;20070;-90
2022/10/01 02:22:55;;;;;;;18.92;2.90;;;;;;;10.81;100.00;98935.91;4844996;29;20130;-92
2022/10/01 02:25:27;;;;;;;20.75;3.25;;;;;;;10.83;100.00;98931.28;4811889;29;20037;-92
2022/10/01 02:28:19;;;;;;;37.47;3.80;;;;;;;10.84;100.00;98930.25;4820076;29;20071;-91
2022/10/01 02:30:49;;;;;;;18.45;2.75;;;;;;;10.83;100.00;98936.56;4807124;29;20121;-92
2022/10/01 02:33:23;;;;;;;17.17;3.05;;;;;;;10.84;100.00;98936.38;4798180;29;20057;-92
2022/10/01 02:35:53;;;;;;;25.00;4.15;;;;;;;10.82;100.00;98934.91;4810693;29;20041;-92
2022/10/01 02:38:24;;;;;;;19.60;2.58;;;;;;;10.82;100.00;98938.38;4824198;29;20045;-91
2022/10/01 02:40:57;;;;;;;18.60;2.65;;;;;;;10.82;100.00;98937.53;4806091;29;20107;-90
2022/10/01 02:43:31;;;;;;;15.77;2.13;;;;;;;10.81;100.00;98939.38;4812792;29;20058;-92
2022/10/01 02:46:19;;;;;;;16.13;2.72;;;;;;;10.83;100.00;98941.84;4824323;29;20491;-92
2022/10/01 02:48:50;;;;;;;23.17;2.85;;;;;;;10.82;100.00;98938.38;4823085;29;20046;-91
2022/10/01 02:51:24;;;;;;;18.08;2.55;;;;;;;10.84;100.00;98939.03;4825327;29;20040;-90
2022/10/01 02:54:16;;;;;;;22.65;3.08;;;;;;;10.86;100.00;98930.91;4833790;29;20042;-92
2022/10/01 02:59:34;;;;;;;26.90;4.47;;;;;;;10.90;100.00;98938.28;4838414;29;20030;-92
2022/10/01 03:02:02;;;;;;;17.83;3.17;;;;;;;10.94;100.00;98940.56;4824354;29;20050;-92
2022/10/01 03:04:29;;;;;;;21.67;2.88;;;;;;;10.94;100.00;98936.06;4811422;29;20136;-92
2022/10/01 03:07:02;;;;;;;23.98;3.53;;;;;;;10.97;100.00;98937.53;4810118;29;20045;-92
2022/10/01 03:09:33;;;;;;;17.25;3.03;;;;;;;10.98;100.00;98947.94;4836931;29;20093;-92
2022/10/01 03:12:05;;;;;;;23.80;2.95;;;;;;;10.98;100.00;98945.28;4828708;29;20041;-92
2022/10/01 03:14:34;;;;;;;21.42;3.08;;;;;;;11.00;100.00;98950.41;4824830;29;20066;-92
2022/10/01 03:17:01;;;;;;;25.73;4.00;;;;;;;11.00;100.00;98953.88;4825368;29;20042;-92
2022/10/01 03:19:29;;;;;;;16.80;3.15;;;;;;;11.01;100.00;98967.88;4827945;29;20034;-91
2022/10/01 03:21:57;;;;;;;18.75;3.17;;;;;;;11.01;100.00;98967.88;4828563;29;20048;-93
2022/10/01 03:24:25;;;;;;;19.17;3.28;;;;;;;11.02;100.00;98967.69;4818976;29;20142;-91
2022/10/01 03:26:56;;;;;;;23.92;3.03;;;;;;;11.04;100.00;98976.28;4801090;29;20036;-89
2022/10/01 03:29:26;;;;;;;24.50;3.00;;;;;;;11.07;100.00;98987.50;4835312;29;20033;-91
2022/10/01 03:31:55;;;;;;;20.00;3.75;;;;;;;11.07;100.00;98985.66;4813357;29;20050;-91
2022/10/01 03:34:24;;;;;;;15.05;2.55;;;;;;;11.07;100.00;98992.78;4843500;29;20076;-90
2022/10/01 03:36:52;;;;;;;21.10;3.00;;;;;;;11.06;100.00;98980.56;4818341;29;20112;-91
2022/10/01 03:39:20;;;;;;;18.48;3.38;;;;;;;11.07;100.00;98980.38;4813272;29;20046;-92
2022/10/01 03:41:47;;;;;;;20.40;2.42;;;;;;;11.06;100.00;98991.13;4798402;29;20432;-89
2022/10/01 03:44:16;;;;;;;22.25;3.33;;;;;;;11.06;100.00;98991.97;4820403;29;20121;-90
2022/10/01 03:46:44;;;;;;;21.38;2.95;;;;;;;11.07;100.00;98987.50;4825390;29;20102;-91
2022/10/01 03:49:13;;;;;;;20.05;3.15;;;;;;;11.07;100.00;98990.16;4834992;29;20049;-92
2022/10/01 03:51:41;;;;;;;20.42;3.08;;;;;;;11.03;100.00;98990.50;4837522;29;20135;-91
2022/10/01 03:54:10;;;;;;;23.02;2.72;;;;;;;11.05;100.00;98990.31;4827519;29;20053;-92
2022/10/01 03:56:39;;;;;;;19.88;2.85;;;;;;;11.01;100.00;98995.16;4810448;29;20131;-91
2022/10/01 03:59:10;;;;;;;21.00;3.15;;;;;;;11.03;100.00;99006.38;4827949;29;20046;-92
2022/10/01 04:01:39;;;;;;;19.05;2.97;;;;;;;11.02;100.00;99004.72;4812588;29;20061;-91
2022/10/01 04:04:09;;;;;;;18.00;2.92;;;;;;;11.02;100.00;99007.38;4798807;29;20057;-91
2022/10/01 04:06:38;;;;;;;17.45;2.33;;;;;;;11.01;100.00;99016.31;4812810;29;20045;-91
2022/10/01 04:09:08;;;;;;;16.15;2.55;;;;;;;11.01;100.00;99007.53;4840694;29;20049;-92
2022/10/01 04:11:38;;;;;;;20.45;3.42;;;;;;;10.97;100.00;99001.81;4811217;29;20136;-93
2022/10/01 04:14:08;;;;;;;18.67;3.35;;;;;;;10.96;100.00;99007.28;4829779;29;20044;-92
2022/10/01 04:16:37;;;;;;;14.63;2.45;;;;;;;10.92;100.00;99009.47;4825174;29;20034;-93
2022/10/01 04:19:06;;;;;;;16.20;2.88;;;;;;;10.91;100.00;99013.09;4841526;29;20038;-91
2022/10/01 04:21:35;;;;;;;21.95;2.60;;;;;;;10.87;100.00;99025.88;4838701;29;20111;-92
2022/10/01 04:24:04;;;;;;;16.45;2.45;;;;;;;10.83;100.00;99026.44;4828908;29;20050;-91
2022/10/01 04:26:31;;;;;;;18.48;2.20;;;;;;;10.79;100.00;99032.06;4827833;29;20065;-92
2022/10/01 04:29:01;;;;;;;13.65;2.22;;;;;;;10.75;100.00;99022.84;4823784;29;20037;-92
2022/10/01 04:31:33;;;;;;;24.42;2.78;;;;;;;10.75;100.00;99022.84;4823106;29;20038;-91
2022/10/01 04:34:03;;;;;;;18.17;2.53;;;;;;;10.75;100.00;99030.78;4811863;29;20049;-91
2022/10/01 04:36:33;;;;;;;17.38;2.75;;;;;;;10.72;100.00;99043.56;4812542;29;20041;-91
2022/10/01 04:39:03;;;;;;;14.15;2.42;;;;;;;10.70;100.00;99042.91;4821068;29;20046;-92
2022/10/01 04:41:33;;;;;;;24.27;3.25;;;;;;;10.67;100.00;99052.81;4823580;29;20045;-90
2022/10/01 04:44:03;;;;;;;21.15;2.50;;;;;;;10.67;100.00;99046.72;4822276;29;20046;-92
2022/10/01 04:46:33;;;;;;;19.15;2.42;;;;;;;10.64;100.00;99052.34;4821729;29;20053;-90
2022/10/01 04:49:02;;;;;;;17.55;3.50;;;;;;;10.62;100.00;99055.16;4816104;29;20508;-91
2022/10/01 04:51:29;;;;;;;14.05;2.50;;;;;;;10.61;100.00;99052.72;4803450;29;20046;-91
2022/10/01 04:53:59;;;;;;;15.68;2.38;;;;;;;10.61;100.00;99060.63;4824895;29;20322;-91
2022/10/01 04:56:29;;;;;;;16.63;2.33;;;;;;;10.59;100.00;99065.28;4842258;29;20038;-91
2022/10/01 04:58:59;;;;;;;17.85;2.80;;;;;;;10.61;100.00;99072.03;4809897;29;20054;-90
2022/10/01 05:01:29;;;;;;;12.32;2.22;;;;;;;10.58;100.00;99063.63;4824482;29;20041;-92
2022/10/01 05:03:59;;;;;;;16.25;2.83;;;;;;;10.58;100.00;99064.47;4843672;29;20041;-91
2022/10/01 05:06:28;;;;;;;19.38;2.13;;;;;;;10.59;100.00;99076.66;4821740;29;20041;-92
2022/10/01 05:08:55;;;;;;;20.00;2.70;;;;;;;10.56;100.00;99081.50;4822417;29;20046;-91
2022/10/01 05:11:24;;;;;;;16.88;2.53;;;;;;;10.56;100.00;99081.50;4825522;29;20046;-91
2022/10/01 05:13:53;;;;;;;16.52;2.38;;;;;;;10.54;100.00;99076.41;4807436;29;20068;-92
2022/10/01 05:16:21;;;;;;;19.98;3.10;;;;;;;10.57;100.00;99075.22;4793740;29;20095;-92
2022/10/01 05:18:48;;;;;;;17.98;2.08;;;;;;;10.59;100.00;99084.59;4827807;29;20049;-91
2022/10/01 05:21:16;;;;;;;19.65;2.00;;;;;;;10.59;100.00;99084.59;4812232;29;20079;-93
2022/10/01 05:23:44;;;;;;;29.60;2.67;;;;;;;10.58;100.00;99093.53;4844474;29;20049;-92
2022/10/01 05:26:11;;;;;;;19.15;2.45;;;;;;;10.57;100.00;99094.53;4809083;29;20051;-92
2022/10/01 05:28:43;;;;;;;27.15;3.65;;;;;;;10.56;100.00;99103.44;4838777;29;20061;-93
2022/10/01 05:31:13;;;;;;;23.23;2.88;;;;;;;10.58;100.00;99101.47;4805806;29;20045;-92
2022/10/01 05:33:42;;;;;;;20.55;2.72;;;;;;;10.58;100.00;99104.09;4825638;29;20050;-93
2022/10/01 05:36:12;;;;;;;17.88;2.80;;;;;;;10.60;100.00;99109.19;4797783;29;20058;-92
2022/10/01 05:38:41;;;;;;;20.20;3.58;;;;;;;10.62;100.00;99115.94;4820540;29;20149;-92
2022/10/01 05:41:09;;;;;;;14.50;2.28;;;;;;;10.65;100.00;99123.50;4812588;29;20069;-93
2022/10/01 05:43:38;;;;;;;21.75;3.75;;;;;;;10.70;100.00;99124.81;4808280;29;20045;-91
2022/10/01 05:46:06;;;;;;;17.05;2.53;;;;;;;10.72;100.00;99128.91;4832251;29;20110;-92
2022/10/01 05:48:35;;;;;;;16.70;2.10;;;;;;;10.76;100.00;99124.09;4841495;29;20077;-92
2022/10/01 05:51:07;;;;;;;17.50;2.70;;;;;;;10.77;100.00;99134.50;4827442;29;20094;-91
2022/10/01 05:53:36;;;;;;;22.42;2.45;;;;;;;10.81;100.00;99134.97;4828482;29;20115;-91
2022/10/01 05:56:06;;;;;;;15.20;2.13;;;;;;;10.79;100.00;99135.16;4808837;29;20053;-92
2022/10/01 05:58:34;;;;;;;13.35;2.17;;;;;;;10.71;100.00;99131.75;4852932;29;20034;-92
2022/10/01 06:01:03;;;;;;;15.20;1.77;;;;;;;10.63;100.00;99133.47;4840241;29;20106;-92
2022/10/01 06:03:31;;;;;;;16.88;1.80;;;;;;;10.56;100.00;99129.06;4839172;29;20043;-91
2022/10/01 06:06:00;;;;;;;14.93;2.33;;;;;;;10.49;100.00;99135.06;4814544;29;20102;-91
2022/10/01 06:08:27;;;;;;;17.38;1.90;;;;;;;10.46;100.00;99139.84;4826291;29;20391;-90
2022/10/01 06:11:00;;;;;;;10.38;1.75;;;;;;;10.39;100.00;99145.00;4822879;29;20027;-91
2022/10/01 06:13:28;;;;;;;14.88;2.47;;;;;;;10.30;100.00;99149.50;4795300;29;20091;-92
2022/10/01 06:15:56;;;;;;;13.82;2.28;;;;;;;10.24;100.00;99148.38;4826090;29;20046;-91
2022/10/01 06:18:24;;;;;;;19.08;2.50;;;;;;;10.19;100.00;99153.38;4825284;29;20122;-91
2022/10/01 06:20:53;;;;;;;16.80;2.60;;;;;;;10.16;100.00;99159.00;4830966;29;20048;-92
2022/10/01 06:23:19;;;;;;;17.50;1.80;;;;;;;10.14;100.00;99158.34;4819721;29;20080;-91
2022/10/01 06:25:48;;;;;;;19.38;2.38;;;;;;;10.07;100.00;99157.38;4833756;29;20050;-91
2022/10/01 06:28:17;;;;;;;14.70;2.38;;;;;;;10.02;100.00;99164.00;4820112;29;20568;-91
2022/10/01 06:30:46;;;;;;;16.17;2.22;;;;;;;10.01;100.00;99165.00;4829962;29;20069;-91
2022/10/01 06:33:15;;;;;;;15.32;2.17;;;;;;;10.02;100.00;99168.47;4847792;29;20174;-90
2022/10/01 06:35:49;;;;;;;19.85;2.03;;;;;;;9.98;100.00;99173.28;4818537;29;20045;-91
2022/10/01 06:38:19;;;;;;;13.93;2.20;;;;;;;9.98;100.00;99167.16;4825213;29;20049;-91
2022/10/01 06:40:54;;;;;;;12.73;2.58;;;;;;;10.01;100.00;99177.38;4809829;29;20096;-91
2022/10/01 06:43:23;;;;;;;11.27;1.40;;;;;;;10.02;100.00;99190.41;4844401;29;20090;-90
2022/10/01 06:45:51;;;;;;;19.23;2.53;;;;;;;10.08;100.00;99188.09;4820652;29;20041;-91
2022/10/01 06:48:20;;;;;;;20.98;2.47;;;;;;;10.17;100.00;99194.97;4840324;29;20045;-91
2022/10/01 06:50:51;;;;;;;15.63;2.50;;;;;;;10.24;100.00;99193.25;4795531;29;20042;-90
2022/10/01 06:53:18;;;;;;;17.77;2.38;;;;;;;10.30;100.00;99197.84;4828345;29;20037;-91
2022/10/01 06:55:48;;;;;;;14.85;2.88;;;;;;;10.33;100.00;99193.22;4801937;29;20037;-91
2022/10/01 06:58:19;;;;;;;17.50;2.25;;;;;;;10.37;100.00;99195.34;4825037;29;20049;-90
2022/10/01 07:00:49;;;;;;;15.40;2.30;;;;;;;10.40;100.00;99197.63;4823192;29;20080;-91
2022/10/01 07:03:21;;;;;;;18.67;2.20;;;;;;;10.45;100.00;99196.31;4827855;29;20375;-91
2022/10/01 07:05:50;;;;;;;19.05;2.42;;;;;;;10.51;100.00;99188.53;4824918;29;20099;-91
2022/10/01 07:08:17;;;;;;;18.13;2.45;;;;;;;10.60;100.00;99202.53;4824183;29;20042;-92
2022/10/01 07:10:46;;;;;;;13.82;2.33;;;;;;;10.67;100.00;99208.72;4844271;29;20472;-89
2022/10/01 07:13:19;;;;;;;15.23;2.72;;;;;;;10.78;100.00;99204.84;4827041;29;20034;-91
2022/10/01 07:15:48;;;;;;;13.88;1.88;;;;;;;10.84;100.00;99206.00;4829648;29;20034;-92
2022/10/01 07:18:15;;;;;;;15.25;2.08;;;;;;;10.94;100.00;99210.22;4796276;29;20053;-92
2022/10/01 07:20:45;;;;;;;13.25;2.88;;;;;;;11.00;100.00;99212.16;4815622;29;20036;-91
2022/10/01 07:23:14;;;;;;;16.00;2.58;;;;;;;11.10;100.00;99223.28;4798713;29;20052;-89
2022/10/01 07:25:43;;;;;;;16.25;1.88;;;;;;;11.14;100.00;99229.03;4811803;29;20050;-91
2022/10/01 07:28:16;;;;;;;19.17;2.28;;;;;;;11.20;100.00;99223.03;4811192;29;20514;-92
2022/10/01 07:31:05;;;;;;;17.92;2.47;;;;;;;11.23;100.00;99230.63;4843052;29;20534;-91
2022/10/01 07:33:33;;;;;;;15.63;2.13;;;;;;;11.29;100.00;99229.91;4808754;29;20046;-91
2022/10/01 07:36:03;;;;;;;13.98;1.88;;;;;;;11.35;100.00;99230.19;4798148;29;20038;-92
2022/10/01 07:38:34;;;;;;;17.88;2.58;;;;;;;11.45;100.00;99237.88;4827325;29;20057;-92
2022/10/01 07:41:03;;;;;;;18.40;3.72;;;;;;;11.49;100.00;99241.78;4820991;29;20053;-92
2022/10/01 07:43:33;;;;;;;13.73;1.65;;;;;;;11.57;100.00;99249.66;4812742;29;20044;-90
2022/10/01 07:46:02;;;;;;;11.55;1.90;;;;;;;11.60;100.00;99253.75;4811416;29;20049;-91
2022/10/01 07:48:29;;;;;;;20.90;3.30;;;;;;;11.64;100.00;99263.81;4823755;29;20038;-91
2022/10/01 07:50:58;;;;;;;19.63;2.65;;;;;;;11.61;100.00;99258.88;4830468;29;20166;-90
2022/10/01 07:53:27;;;;;;;15.52;2.33;;;;;;;11.71;100.00;99266.56;4833128;29;20034;-89
2022/10/01 07:55:54;;;;;;;20.58;2.47;;;;;;;11.74;100.00;99270.66;4828444;29;20499;-90
2022/10/01 07:58:22;;;;;;;13.38;2.15;;;;;;;11.74;100.00;99268.84;4831683;29;20507;-90
2022/10/01 08:00:56;;;;;;;15.80;2.53;;;;;;;11.73;100.00;99259.28;4838386;29;20050;-90
2022/10/01 08:03:24;;;;;;;22.58;2.85;;;;;;;11.76;100.00;99266.00;4813484;29;20049;-91
2022/10/01 08:05:53;;;;;;;19.30;3.17;;;;;;;11.78;100.00;99274.59;4827771;29;20045;-91
2022/10/01 08:08:20;;;;;;;20.08;3.00;;;;;;;11.79;100.00;99274.44;4828483;29;20041;-91
2022/10/01 08:10:49;;;;;;;18.45;3.10;;;;;;;11.81;100.00;99279.53;4812576;29;20087;-92
2022/10/01 08:13:17;;;;;;;16.77;3.08;;;;;;;11.84;100.00;99273.88;4827318;29;20041;-90
2022/10/01 08:15:54;;;;;;;31.02;3.67;;;;;;;11.84;100.00;99275.69;4828943;29;20882;-89
2022/10/01 08:18:22;;;;;;;14.65;2.45;;;;;;;11.87;100.00;99278.81;4827436;29;20034;-91
2022/10/01 08:20:51;;;;;;;24.40;3.20;;;;;;;11.88;100.00;99284.94;4810854;29;20034;-88
2022/10/01 08:23:19;;;;;;;17.52;2.28;;;;;;;11.93;100.00;99285.19;4828374;29;20048;-92
2022/10/01 08:25:48;;;;;;;18.75;2.45;;;;;;;11.95;100.00;99280.53;4828418;29;20034;-89
2022/10/01 08:28:15;;;;;;;18.77;2.78;;;;;;;11.98;100.00;99285.47;4817915;29;20040;-91
2022/10/01 08:30:43;;;;;;;14.25;2.28;;;;;;;12.00;100.00;99301.19;4825678;29;20396;-90
2022/10/01 08:33:13;;;;;;;12.45;1.88;;;;;;;12.03;100.00;99306.94;4826068;29;20037;-91
2022/10/01 08:35:42;;;;;;;14.65;1.90;;;;;;;12.06;100.00;99302.28;4840991;29;20041;-90
2022/10/01 08:38:11;;;;;;;9.88;1.67;;;;;;;12.10;100.00;99320.31;4806692;29;20518;-92
2022/10/01 08:40:50;;;;;;;7.88;1.60;;;;;;;12.15;100.00;99311.81;4824609;29;20042;-91
2022/10/01 08:43:31;;;;;;;14.80;2.53;;;;;;;12.20;100.00;99319.22;4802215;29;20058;-89
2022/10/01 08:46:15;;;;;;;16.67;3.15;;;;;;;12.22;100.00;99319.84;4839737;29;20487;-90
2022/10/01 08:48:44;;;;;;;14.70;1.85;;;;;;;12.24;100.00;99323.97;4804441;29;20579;-90
2022/10/01 08:51:33;;;;;;;11.63;1.90;;;;;;;12.28;100.00;99319.94;4812307;29;20049;-92
2022/10/01 08:54:19;;;;;;;19.23;2.95;;;;;;;12.32;100.00;99325.69;4824601;29;20041;-91
2022/10/01 08:56:49;;;;;;;15.38;1.83;;;;;;;12.38;100.00;99324.13;4827033;29;20125;-91
2022/10/01 08:59:31;;;;;;;16.13;1.67;;;;;;;12.45;100.00;99332.19;4811042;29;20042;-93
2022/10/01 09:02:29;;;;;;;14.55;1.92;;;;;;;12.52;100.00;99336.56;4809678;29;20103;-92
2022/10/01 09:04:59;;;;;;;22.02;3.10;;;;;;;12.65;100.00;99345.66;4810375;29;20042;-92
2022/10/01 09:07:55;;;;;;;14.40;1.85;;;;;;;12.74;100.00;99343.75;4826014;29;20113;-92
2022/10/01 09:10:35;;;;;;;15.55;1.77;;;;;;;12.81;100.00;99346.47;4823990;29;20042;-92
2022/10/01 09:13:17;;;;;;;16.77;2.45;;;;;;;12.87;100.00;99343.91;4794738;29;20484;-91
2022/10/01 09:15:50;;;;;;;12.93;2.10;;;;;;;12.98;100.00;99336.47;4811855;29;20487;-90
2022/10/01 09:18:38;;;;;;;17.40;2.97;;;;;;;13.07;100.00;99347.78;4824769;29;20030;-89
2022/10/01 09:21:35;;;;;;;16.85;2.65;;;;;;;13.14;100.00;99348.66;4840577;29;20090;-91
2022/10/01 09:24:15;;;;;;;;;;;;;;;13.08;100.00;99344.94;4838785;29;20033;-91
2022/10/01 09:26:50;;;;;;;17.83;2.25;;;;;;;13.21;100.00;99346.06;4826547;29;19917;-90
2022/10/01 09:29:27;;;;;;;15.87;2.57;;;;;;;13.30;100.00;99365.38;4809819;29;20038;-90
2022/10/01 09:32:01;;;;;;;14.00;1.73;;;;;;;13.35;100.00;99347.84;4825807;29;20042;-89
2022/10/01 09:34:37;;;;;;;17.05;2.97;;;;;;;13.39;100.00;99351.75;4836422;29;20095;-91
2022/10/01 09:37:37;;;;;;;16.20;2.42;;;;;;;13.36;100.00;99364.59;4826368;29;20058;-91
2022/10/01 09:40:18;;;;;;;12.45;2.83;;;;;;;13.35;100.00;99366.44;4824346;29;20081;-90
2022/10/01 09:42:48;;;;;;;14.70;2.65;;;;;;;13.40;100.00;99352.59;4809815;29;20518;-90
2022/10/01 09:45:25;;;;;;;17.45;3.30;;;;;;;13.42;100.00;99350.56;4825658;29;20058;-89
2022/10/01 09:48:03;;;;;;;17.55;2.05;;;;;;;13.48;100.00;99365.75;4810343;29;20045;-89
2022/10/01 09:50:54;;;;;;;12.52;2.05;;;;;;;13.52;100.00;99366.22;4820701;29;20094;-89
2022/10/01 09:53:27;;;;;;;11.38;2.28;;;;;;;13.59;100.00;99369.75;4826296;29;20082;-89
2022/10/01 09:56:03;;;;;;;14.48;2.05;;;;;;;13.67;100.00;99378.56;4840771;29;20109;-89
2022/10/01 09:58:33;;;;;;;;;;;;;;;13.58;100.00;99381.38;4839125;29;20042;-90
2022/10/01 10:01:01;;;;;;;9.35;1.63;;;;;;;13.73;100.00;99378.63;4825683;29;19921;-89
2022/10/01 10:03:31;;;;;;;13.05;1.85;;;;;;;13.79;100.00;99386.84;4807981;29;20034;-89
2022/10/01 10:06:00;;;;;;;13.00;2.08;;;;;;;13.82;100.00;99389.97;4788730;29;20064;-88
2022/10/01 10:08:33;;;;;;;13.85;2.40;;;;;;;13.88;100.00;99397.16;4820378;29;20049;-91
2022/10/01 10:11:14;;;;;;;9.68;1.63;;;;;;;13.90;100.00;99402.28;4853935;29;20046;-86
2022/10/01 10:13:54;;;;;;;13.23;2.47;;;;;;;14.05;100.00;99398.72;4811860;29;20038;-90
2022/10/01 10:16:35;;;;;;;12.38;2.30;;;;;;;14.23;100.00;99409.69;4827773;29;20034;-88
2022/10/01 10:19:22;;;;;;;15.60;2.45;;;;;;;14.36;100.00;99403.63;4842551;29;20114;-90
2022/10/01 10:21:59;;;;;;;11.88;1.85;;;;;;;14.40;100.00;99396.06;4842118;29;20042;-88
2022/10/01 10:24:34;;;;;;;14.38;2.92;;;;;;;14.48;100.00;99403.88;4826381;29;20042;-89
2022/10/01 10:27:19;;;;;;;14.32;2.83;;;;;;;14.61;100.00;99404.97;4857466;29;20065;-90
2022/10/01 10:29:49;;;;;;;16.08;2.50;;;;;;;14.66;100.00;99409.69;4828482;29;20044;-89
2022/10/01 10:32:24;;;;;;;14.60;2.00;;;;;;;14.73;100.00;99415.91;4814356;29;20085;-90
2022/10/01 10:34:56;;;;;;;12.77;1.95;;;;;;;14.70;100.00;99419.75;4822199;29;20099;-90
2022/10/01 10:37:29;;;;;;;14.57;3.22;;;;;;;14.66;100.00;99417.69;4817071;29;20046;-88
2022/10/01 10:39:57;;;;;;;14.07;2.47;;;;;;;14.59;100.00;99422.94;4816321;29;20129;-88
2022/10/01 10:42:32;;;;;;;18.95;2.78;;;;;;;14.59;100.00;99429.09;4824641;29;20387;-89
2022/10/01 10:45:15;;;;;;;10.50;1.98;;;;;;;14.57;100.00;99430.31;4811421;29;20132;-91
2022/10/01 10:47:50;;;;;;;16.45;3.28;;;;;;;14.53;100.00;99424.56;4842241;29;20381;-92
2022/10/01 10:50:41;;;;;;;19.23;3.42;;;;;;;14.54;100.00;99431.53;4814671;29;20034;-91
2022/10/01 10:53:26;;;;;;;13.15;2.10;;;;;;;14.73;100.00;99422.00;4828822;29;20046;-91
2022/10/01 10:56:26;;;;;;;11.68;2.15;;;;;;;14.72;98.67;99428.34;4827336;29;20042;-91
2022/10/01 10:58:59;;;;;;;14.10;1.95;;;;;;;14.61;98.96;99440.38;4820750;29;20054;-88
2022/10/01 11:01:42;;;;;;;13.82;2.22;;;;;;;14.61;99.46;99442.19;4812509;29;20049;-90
2022/10/01 11:04:31;;;;;;;14.68;2.33;;;;;;;14.66;98.81;99442.44;4817999;29;20096;-89
2022/10/01 11:07:01;;;;;;;17.17;2.60;;;;;;;14.70;99.14;99453.53;4813608;29;20045;-87
2022/10/01 11:09:59;;;;;;;14.27;2.38;;;;;;;14.59;97.67;99446.88;4828912;29;20044;-88
2022/10/01 11:12:38;;;;;;;12.68;2.13;;;;;;;14.51;97.98;99453.19;4792552;29;20403;-89
2022/10/01 11:15:19;;;;;;;13.88;2.42;;;;;;;14.41;98.32;99453.56;4825041;29;20102;-89
2022/10/01 11:17:57;;;;;;;14.15;2.13;;;;;;;14.40;98.53;99462.53;4842840;29;20487;-86
2022/10/01 11:20:59;;;;;;;13.38;2.67;;;;;;;14.33;98.53;99465.16;4811616;29;20049;-88
2022/10/01 11:23:48;;;;;;;12.10;2.15;;;;;;;14.30;98.46;99476.16;4821338;29;20073;-90
2022/10/01 11:26:29;;;;;;;11.38;1.60;;;;;;;14.26;99.86;99488.19;4826848;29;20056;-88
2022/10/01 11:29:01;;;;;;;12.18;1.88;;;;;;;14.21;100.00;99478.13;4847949;29;20097;-89
2022/10/01 11:31:41;;;;;;;12.52;2.15;;;;;;;14.18;100.00;99491.81;4829872;29;20109;-91
2022/10/01 11:34:24;;;;;;;13.55;1.95;;;;;;;14.21;100.00;99486.13;4812209;29;20058;-90
2022/10/01 11:37:18;;;;;;;14.18;1.95;;;;;;;14.29;100.00;99484.31;4837899;29;20046;-90
2022/10/01 11:39:53;;;;;;;12.50;1.75;;;;;;;14.41;100.00;99489.94;4842238;29;20054;-91
2022/10/01 11:42:33;;;;;;;8.90;1.55;;;;;;;14.37;100.00;99497.47;4824886;29;20041;-91
2022/10/01 11:45:15;;;;;;;8.07;1.40;;;;;;;14.38;100.00;99497.28;4822249;29;20133;-89
2022/10/01 11:47:53;;;;;;;6.00;1.40;;;;;;;14.49;99.69;99487.94;4825244;29;20133;-90
2022/10/01 11:50:37;;;;;;;16.73;2.28;;;;;;;14.62;98.72;99492.53;4828177;29;20071;-90
2022/10/01 11:53:20;;;;;;;11.40;2.63;;;;;;;14.75;97.56;99481.16;4853128;29;20037;-90